Time;durP1;ratioP1;P1;durP2;ratioP2;P2;SDS_P1;SDS_P2;PMS_P1;PMS_P2;Temp;Humidity;BMP_temperature;BMP_pressure;BME280_temperature;BME280_humidity;BME280_pressure;Samples;Min_cycle;Max_cycle;Signal;HPM_P1;HPM_P2
2022/07/02 00:01:22;;;;;;;7.50;6.70;;;17.90;99.90;;;17.95;71.09;101638.84;5070424;28;20443;-75
2022/07/02 00:03:53;;;;;;;9.80;8.10;;;17.80;99.90;;;17.98;70.76;101635.63;5071940;28;21011;-74
2022/07/02 00:06:29;;;;;;;8.33;7.57;;;17.80;99.90;;;18.09;71.03;101643.03;5070687;28;20491;-74
2022/07/02 00:09:00;;;;;;;9.17;7.30;;;17.90;99.90;;;18.10;70.53;101650.19;5063135;28;20440;-73
2022/07/02 00:11:32;;;;;;;9.10;8.20;;;18.00;99.90;;;18.04;70.89;101642.91;5064877;28;20784;-73
2022/07/02 00:14:02;;;;;;;8.57;7.73;;;17.90;99.90;;;17.88;71.46;101651.78;5068952;28;20450;-73
2022/07/02 00:16:34;;;;;;;11.93;10.50;;;17.80;99.90;;;17.92;71.53;101650.22;5067565;28;20454;-73
2022/07/02 00:19:03;;;;;;;9.27;8.10;;;17.80;99.90;;;17.74;71.36;101657.44;5075055;28;20608;-71
2022/07/02 00:21:32;;;;;;;11.03;8.00;;;17.70;99.90;;;18.00;70.83;101655.41;5073144;28;20522;-72
2022/07/02 00:24:01;;;;;;;10.03;8.63;;;17.80;99.90;;;17.87;71.42;101655.56;5077684;28;20470;-73
2022/07/02 00:26:34;;;;;;;9.03;8.07;;;17.70;99.90;;;17.45;73.18;101662.84;5078460;28;20940;-73
2022/07/02 00:29:14;;;;;;;9.27;7.37;;;17.50;99.90;;;17.78;72.42;101653.16;5077812;28;20445;-73
2022/07/02 00:31:45;;;;;;;8.50;7.53;;;17.50;99.90;;;17.71;71.86;101657.91;5073906;28;20448;-73
2022/07/02 00:34:16;;;;;;;9.17;7.60;;;17.50;99.90;;;17.79;71.51;101659.47;5072979;28;20442;-73
2022/07/02 00:36:46;;;;;;;9.43;8.53;;;17.60;99.90;;;17.50;72.53;101661.09;5068474;28;20985;-73
2022/07/02 00:39:15;;;;;;;9.00;8.03;;;17.40;99.90;;;17.83;71.84;101659.84;5077741;28;20416;-73
2022/07/02 00:41:47;;;;;;;9.60;7.00;;;17.60;99.90;;;17.90;71.02;101660.59;5084751;28;21035;-73
2022/07/02 00:44:18;;;;;;;10.33;7.40;;;17.70;99.90;;;17.91;71.14;101657.63;5074587;22;20566;-74
2022/07/02 00:46:50;;;;;;;7.40;5.83;;;17.70;99.90;;;17.81;70.98;101662.84;5044978;28;20848;-74
2022/07/02 00:49:19;;;;;;;8.17;7.33;;;17.70;99.90;;;17.90;70.98;101666.09;5043622;28;20474;-74
2022/07/02 00:51:48;;;;;;;8.67;7.77;;;17.70;99.90;;;18.10;70.41;101664.75;5063422;28;20460;-74
2022/07/02 00:54:17;;;;;;;7.90;6.80;;;17.90;99.90;;;17.84;70.27;101661.53;5054720;28;20442;-74
2022/07/02 00:56:47;;;;;;;8.10;7.07;;;17.70;99.90;;;17.59;71.71;101659.75;5042376;28;20415;-73
2022/07/02 00:59:17;;;;;;;7.57;6.80;;;17.60;99.90;;;17.81;71.56;101662.84;5056581;28;20458;-75
2022/07/02 01:01:47;;;;;;;8.57;7.77;;;17.60;99.90;;;17.85;71.21;101664.03;5053390;28;20523;-73
2022/07/02 01:04:17;;;;;;;7.47;6.57;;;17.60;99.90;;;17.97;70.27;101667.66;5045485;28;20582;-74
2022/07/02 01:06:50;;;;;;;10.40;7.80;;;17.70;99.90;;;17.60;71.29;101666.91;5033041;28;20443;-73
2022/07/02 01:12:08;;;;;;;9.03;7.30;;;17.60;99.90;;;17.56;71.85;101665.66;5028456;28;20473;-74
2022/07/02 01:14:39;;;;;;;8.73;7.90;;;17.50;99.90;;;17.61;71.89;101660.34;5033526;28;20422;-74
2022/07/02 01:17:10;;;;;;;9.37;8.37;;;17.40;99.90;;;17.73;71.37;101660.41;5062735;28;20414;-73
2022/07/02 01:19:40;;;;;;;8.30;7.17;;;17.60;99.90;;;17.78;70.89;101653.16;5052923;28;20937;-74
2022/07/02 01:22:19;;;;;;;6.70;6.00;;;17.60;99.90;;;18.01;70.18;101659.81;5050733;28;20460;-74
2022/07/02 01:24:50;;;;;;;9.93;8.20;;;17.80;99.90;;;18.02;70.13;101664.22;5035626;28;20437;-74
2022/07/02 01:27:20;;;;;;;7.10;6.40;;;17.70;99.90;;;18.00;70.22;101658.16;5046464;28;20989;-75
2022/07/02 01:29:50;;;;;;;6.83;6.13;;;17.80;99.90;;;17.99;70.48;101664.69;5057794;28;20416;-73
2022/07/02 01:32:20;;;;;;;10.73;7.80;;;17.80;99.90;;;17.56;69.89;101665.66;5049061;28;20459;-74
2022/07/02 01:34:51;;;;;;;9.10;7.77;;;17.60;99.90;;;17.30;72.09;101665.94;5035718;28;20429;-74
2022/07/02 01:37:23;;;;;;;7.63;6.93;;;17.40;99.90;;;17.56;71.74;101668.38;5053550;28;20412;-74
2022/07/02 01:39:52;;;;;;;10.37;7.30;;;17.50;99.90;;;17.68;70.84;101661.09;5046689;28;20455;-74
2022/07/02 01:42:21;;;;;;;7.87;7.07;;;17.50;99.90;;;17.70;71.11;101667.19;5053069;28;20463;-74
2022/07/02 01:44:51;;;;;;;8.27;6.90;;;17.60;99.90;;;17.59;70.94;101664.38;5041198;28;20986;-75
2022/07/02 01:47:21;;;;;;;9.60;7.57;;;17.50;99.90;;;17.68;70.30;101660.25;5050978;28;20409;-73
2022/07/02 01:49:50;;;;;;;9.63;8.73;;;17.60;99.90;;;17.83;70.64;101668.06;5058343;28;20876;-74
2022/07/02 01:52:19;;;;;;;7.77;6.97;;;17.60;99.90;;;17.95;69.65;101671.69;5066917;28;20437;-74
2022/07/02 01:54:49;;;;;;;11.70;8.20;;;17.80;99.90;;;18.09;69.14;101673.19;5052058;28;20539;-75
2022/07/02 01:57:19;;;;;;;6.57;5.67;;;17.80;99.90;;;17.92;70.14;101678.47;5051965;28;20407;-74
2022/07/02 01:59:48;;;;;;;8.53;7.73;;;17.80;99.90;;;18.13;69.56;101677.13;5052906;28;20523;-74
2022/07/02 02:02:18;;;;;;;8.63;7.73;;;17.90;99.90;;;18.41;68.22;101674.56;5046426;28;20441;-73
2022/07/02 02:04:47;;;;;;;9.33;8.33;;;18.10;99.90;;;18.25;68.45;101669.75;5050331;28;20456;-73
2022/07/02 02:07:16;;;;;;;6.97;6.23;;;18.10;99.90;;;18.24;68.51;101673.59;5052312;28;20458;-73
2022/07/02 02:09:44;;;;;;;7.87;7.07;;;18.00;99.90;;;18.08;68.59;101676.97;5057465;28;20441;-73
2022/07/02 02:12:15;;;;;;;8.37;7.13;;;18.00;99.90;;;18.04;68.60;101681.25;5048315;28;20525;-74
2022/07/02 02:14:44;;;;;;;11.57;7.60;;;17.90;99.90;;;18.00;69.57;101688.28;5041420;28;20447;-73
2022/07/02 02:17:13;;;;;;;9.00;7.67;;;17.90;99.90;;;18.15;68.38;101685.94;5050275;28;20421;-73
2022/07/02 02:19:43;;;;;;;9.07;7.20;;;18.00;99.90;;;17.87;70.04;101689.28;5054235;28;20418;-73
2022/07/02 02:22:12;;;;;;;9.47;8.33;;;17.80;99.90;;;17.51;69.88;101690.13;5049262;28;20812;-73
2022/07/02 02:24:41;;;;;;;11.43;9.00;;;17.60;99.90;;;17.53;70.95;101692.63;5052800;28;20456;-73
2022/07/02 02:27:10;;;;;;;7.70;6.90;;;17.40;99.90;;;17.78;70.51;101698.88;5051559;28;20782;-74
2022/07/02 02:29:41;;;;;;;10.07;8.40;;;17.60;99.90;;;17.70;70.40;101694.56;5038679;28;20438;-74
2022/07/02 02:32:10;;;;;;;8.27;7.30;;;17.60;99.90;;;17.84;69.93;101699.84;5063600;28;20462;-74
2022/07/02 02:34:39;;;;;;;8.73;7.10;;;17.70;99.90;;;17.74;69.75;101703.97;5058901;28;20419;-74
2022/07/02 02:37:09;;;;;;;8.73;7.40;;;17.60;99.90;;;17.89;69.32;101697.25;5062706;28;20435;-75
2022/07/02 02:39:38;;;;;;;9.40;7.43;;;17.70;99.90;;;17.93;69.18;101712.16;5050408;28;20431;-73
2022/07/02 02:42:07;;;;;;;8.67;7.77;;;17.70;99.90;;;18.01;68.45;101704.44;5046566;28;20545;-73
2022/07/02 02:44:37;;;;;;;8.70;7.90;;;17.90;99.90;;;18.01;69.20;101709.13;5038365;28;20481;-75
2022/07/02 02:47:08;;;;;;;8.17;7.20;;;17.80;99.90;;;17.96;68.78;101707.03;5054255;28;20756;-75
2022/07/02 02:49:37;;;;;;;11.27;9.03;;;17.80;99.90;;;17.85;69.70;101712.47;5055645;28;20442;-74
2022/07/02 02:52:07;;;;;;;9.77;8.03;;;17.70;99.90;;;17.88;69.47;101712.84;5059148;28;20434;-74
2022/07/02 02:54:36;;;;;;;8.90;7.50;;;17.70;99.90;;;18.01;69.06;101706.38;5045742;28;20446;-74
2022/07/02 02:57:06;;;;;;;9.60;8.63;;;17.80;99.90;;;17.81;69.31;101707.44;5056679;28;20409;-74
2022/07/02 02:59:36;;;;;;;12.97;8.57;;;17.70;99.90;;;17.77;70.13;101711.72;5058286;28;20420;-74
2022/07/02 03:02:07;;;;;;;9.73;8.90;;;17.50;99.90;;;17.62;70.31;101714.00;5059734;28;20434;-75
2022/07/02 03:04:36;;;;;;;11.10;9.10;;;17.50;99.90;;;17.57;70.19;101716.56;5059689;28;20463;-73
2022/07/02 03:07:06;;;;;;;9.60;7.90;;;17.40;99.90;;;17.45;70.93;101723.88;5068708;28;20397;-74
2022/07/02 03:09:35;;;;;;;8.97;7.60;;;17.30;99.90;;;17.22;71.96;101713.59;5057028;28;20451;-75
2022/07/02 03:12:05;;;;;;;9.17;8.27;;;17.10;99.90;;;17.19;72.17;101722.25;5066990;28;20460;-74
2022/07/02 03:14:33;;;;;;;9.63;8.77;;;17.10;99.90;;;17.21;72.30;101728.34;5064739;28;20401;-72
2022/07/02 03:17:02;;;;;;;9.43;8.03;;;17.00;99.90;;;17.57;71.36;101723.97;5063505;28;21018;-73
2022/07/02 03:19:33;;;;;;;10.30;9.30;;;17.10;99.90;;;17.77;70.33;101735.53;5060625;28;20474;-73
2022/07/02 03:22:02;;;;;;;8.63;7.83;;;17.40;99.90;;;18.11;69.21;101734.03;5050685;28;20427;-74
2022/07/02 03:24:31;;;;;;;8.33;7.53;;;17.70;99.90;;;18.39;68.42;101742.50;5061086;28;20453;-74
2022/07/02 03:27:00;;;;;;;9.17;8.20;;;17.90;99.90;;;18.28;68.16;101740.53;5063039;28;20431;-75
2022/07/02 03:29:29;;;;;;;8.50;7.23;;;17.90;99.90;;;17.86;69.66;101752.50;5058018;28;20400;-74
2022/07/02 03:31:58;;;;;;;9.60;8.70;;;17.70;99.90;;;17.93;68.96;101748.59;5059128;28;20434;-73
2022/07/02 03:34:27;;;;;;;10.57;9.47;;;17.80;99.90;;;18.10;68.96;101749.66;5057001;28;20405;-74
2022/07/02 03:36:57;;;;;;;10.97;8.30;;;17.80;99.90;;;18.16;68.79;101747.88;5036247;28;20421;-75
2022/07/02 03:39:26;;;;;;;12.13;9.23;;;17.80;99.90;;;18.46;67.55;101754.19;5053676;28;20417;-73
2022/07/02 03:41:55;;;;;;;10.30;8.17;;;18.00;99.90;;;18.84;66.01;101748.34;5046991;28;20449;-73
2022/07/02 03:44:24;;;;;;;11.10;9.43;;;18.30;99.90;;;19.41;64.23;101752.16;5048914;28;20492;-73
2022/07/02 03:46:53;;;;;;;10.00;8.10;;;18.50;99.90;;;20.35;61.27;101753.66;5058183;28;20478;-74
2022/07/02 03:49:22;;;;;;;9.90;8.73;;;19.00;99.90;;;21.17;59.37;101759.50;5045713;28;20990;-74
2022/07/02 03:51:51;;;;;;;8.53;7.73;;;19.60;96.60;;;21.64;57.55;101765.41;5059994;28;20520;-74
2022/07/02 03:54:22;;;;;;;9.83;8.00;;;20.10;91.70;;;21.91;56.55;101757.25;5050748;28;20411;-73
2022/07/02 03:56:51;;;;;;;8.27;7.37;;;20.40;82.80;;;22.38;55.03;101760.28;5027747;28;20466;-73
2022/07/02 03:59:20;;;;;;;7.53;6.83;;;20.50;76.60;;;22.66;54.77;101759.19;5047026;28;20410;-75
2022/07/02 04:01:49;;;;;;;10.00;8.10;;;20.60;73.60;;;22.88;53.55;101768.25;5053402;28;20494;-73
2022/07/02 04:04:18;;;;;;;8.30;7.50;;;20.80;62.90;;;22.93;53.71;101762.78;5042789;28;20451;-75
2022/07/02 04:06:47;;;;;;;9.67;8.77;;;20.70;63.10;;;22.84;53.10;101775.41;5052397;28;20406;-74
2022/07/02 04:09:16;;;;;;;10.73;9.03;;;21.20;52.20;;;22.93;52.60;101771.06;5060274;28;20948;-74
2022/07/02 04:11:47;;;;;;;8.07;7.27;;;21.20;51.70;;;23.39;52.22;101774.16;5050806;28;20444;-75
2022/07/02 04:14:16;;;;;;;7.57;6.83;;;21.50;49.60;;;23.61;51.49;101772.13;5058399;28;20440;-73
2022/07/02 04:16:45;;;;;;;8.00;7.20;;;21.50;44.50;;;23.70;51.28;101778.81;5033764;28;20945;-73
2022/07/02 04:19:14;;;;;;;8.87;8.07;;;21.70;42.10;;;23.93;50.16;101780.28;5059154;28;20496;-73
2022/07/02 04:21:43;;;;;;;8.53;7.17;;;21.70;39.30;;;24.12;50.03;101780.63;5052276;28;20802;-74
2022/07/02 04:24:12;;;;;;;6.90;6.20;;;21.70;40.20;;;24.31;49.21;101787.38;5049067;28;20435;-74
2022/07/02 04:26:41;;;;;;;8.87;7.43;;;22.20;34.60;;;24.61;48.50;101787.44;5044598;28;20432;-73
2022/07/02 04:29:12;;;;;;;8.03;7.23;;;22.20;31.00;;;24.32;49.38;101789.03;5059359;28;20968;-73
2022/07/02 04:31:41;;;;;;;8.97;8.07;;;22.30;30.70;;;24.21;49.66;101788.16;5049007;28;20467;-73
2022/07/02 04:34:10;;;;;;;7.77;7.07;;;22.10;32.40;;;24.07;49.48;101786.97;5067605;28;20423;-73
2022/07/02 04:36:39;;;;;;;8.20;6.53;;;22.40;28.70;;;24.32;48.55;101788.19;5058627;28;20438;-72
2022/07/02 04:39:08;;;;;;;8.13;7.00;;;22.20;27.90;;;24.65;48.32;101788.56;5060654;28;21177;-75
2022/07/02 04:41:37;;;;;;;8.57;7.43;;;22.40;27.40;;;24.95;46.74;101784.19;5062140;28;20458;-74
2022/07/02 04:44:06;;;;;;;7.80;7.10;;;22.30;25.60;;;25.49;45.50;101788.00;5058004;28;20526;-73
2022/07/02 04:46:37;;;;;;;6.87;6.27;;;22.30;24.60;;;25.39;46.03;101799.13;5058025;28;20469;-74
2022/07/02 04:49:06;;;;;;;6.63;6.03;;;22.90;24.00;;;25.05;46.68;101790.56;5050382;28;20481;-76
2022/07/02 04:51:35;;;;;;;8.23;7.23;;;23.00;21.50;;;25.41;46.01;101788.59;5059517;28;20459;-75
2022/07/02 04:54:05;;;;;;;6.60;6.00;;;23.20;20.40;;;25.26;46.31;101788.59;5050532;28;20482;-75
2022/07/02 04:56:34;;;;;;;8.13;7.10;;;23.10;19.70;;;25.58;45.90;101785.53;5034728;28;20452;-74
2022/07/02 04:59:03;;;;;;;5.97;5.40;;;23.40;19.50;;;26.24;44.63;101788.06;5060106;28;20450;-76
2022/07/02 05:01:32;;;;;;;8.63;7.83;;;23.30;18.80;;;26.17;44.33;101796.69;5055949;28;20781;-73
2022/07/02 05:04:02;;;;;;;8.90;7.90;;;23.20;18.30;;;26.40;43.42;101797.97;5053593;28;20439;-73
2022/07/02 05:06:32;;;;;;;7.27;5.90;;;23.40;16.30;;;26.68;43.30;101800.00;5043700;28;20467;-73
2022/07/02 05:09:01;;;;;;;7.53;6.70;;;23.50;17.20;;;26.63;42.89;101796.44;5055584;28;20492;-73
2022/07/02 05:11:29;;;;;;;6.73;6.07;;;23.60;14.10;;;26.38;43.78;101795.47;5059869;28;20476;-73
2022/07/02 05:13:59;;;;;;;8.13;6.80;;;23.70;14.70;;;26.34;44.28;101799.09;5067914;28;20492;-74
2022/07/02 05:16:28;;;;;;;7.83;7.07;;;23.60;14.30;;;27.33;41.73;101799.78;5055158;28;20447;-72
2022/07/02 05:18:57;;;;;;;8.67;6.10;;;23.90;13.90;;;28.14;40.44;101799.75;5051980;28;20443;-73
2022/07/02 05:21:27;;;;;;;8.23;7.53;;;23.80;13.70;;;27.39;41.39;101796.69;5053395;28;20418;-73
2022/07/02 05:23:56;;;;;;;7.20;6.50;;;24.50;11.40;;;26.78;42.40;101815.78;5044030;28;20439;-73
2022/07/02 05:26:26;;;;;;;7.00;6.30;;;24.40;10.00;;;27.08;42.25;101810.03;5059231;28;20508;-72
2022/07/02 05:28:55;;;;;;;6.87;6.13;;;24.40;10.70;;;28.35;40.13;101817.03;5045468;28;20443;-73
2022/07/02 05:31:24;;;;;;;6.57;5.97;;;24.40;10.80;;;27.97;40.85;101819.72;5062988;28;20535;-73
2022/07/02 05:33:53;;;;;;;7.37;6.67;;;24.80;9.70;;;28.07;40.46;101815.97;5060915;28;20500;-73
2022/07/02 05:36:22;;;;;;;7.03;6.37;;;24.90;8.60;;;28.20;40.15;101822.78;5061298;28;20429;-75
2022/07/02 05:38:52;;;;;;;7.70;7.00;;;24.80;8.10;;;28.32;39.29;101817.63;5050238;28;20852;-73
2022/07/02 05:41:21;;;;;;;6.90;6.30;;;24.70;7.20;;;25.78;44.66;101817.91;5045300;28;20440;-72
2022/07/02 05:43:50;;;;;;;7.97;6.50;;;23.90;10.00;;;23.62;49.18;101823.53;5031415;28;20497;-73
2022/07/02 05:46:19;;;;;;;7.77;7.07;;;23.20;12.20;;;22.57;52.11;101826.97;5043741;28;21019;-74
2022/07/02 05:48:48;;;;;;;8.77;6.40;;;22.40;15.80;;;22.26;54.10;101825.81;5061621;28;20442;-73
2022/07/02 05:51:17;;;;;;;8.70;6.10;;;22.00;20.40;;;21.86;54.92;101826.06;5032911;28;20863;-73
2022/07/02 05:53:46;;;;;;;7.80;7.00;;;21.60;23.50;;;21.38;55.84;101823.16;5039624;28;20444;-73
2022/07/02 05:56:17;;;;;;;7.33;6.63;;;21.00;27.50;;;21.18;57.60;101830.00;5051649;28;20804;-73
2022/07/02 05:58:46;;;;;;;7.17;6.20;;;20.70;36.30;;;21.10;57.34;101829.53;5058748;28;20438;-74
2022/07/02 06:01:15;;;;;;;7.03;6.40;;;20.80;39.60;;;21.09;57.12;101830.63;5043269;28;20440;-74
2022/07/02 06:03:44;;;;;;;10.00;7.10;;;20.80;41.10;;;21.25;57.23;101836.16;5046823;28;20490;-73
2022/07/02 06:09:00;;;;;;;6.77;6.07;;;20.60;42.60;;;20.98;57.01;101846.13;5050933;28;20889;-72
2022/07/02 06:11:30;;;;;;;6.73;6.03;;;20.60;44.10;;;20.99;57.08;101836.78;5057569;28;20409;-73
2022/07/02 06:13:59;;;;;;;7.67;6.90;;;20.50;43.00;;;21.18;56.85;101846.50;5064296;28;20401;-72
2022/07/02 06:16:29;;;;;;;7.70;6.70;;;20.60;43.50;;;21.42;56.68;101851.84;5043545;28;20436;-74
2022/07/02 06:18:58;;;;;;;6.60;6.00;;;20.80;46.70;;;21.34;56.04;101855.03;5044931;28;20475;-73
2022/07/02 06:21:27;;;;;;;8.50;7.63;;;20.80;41.10;;;21.30;56.69;101859.38;5050775;28;20535;-74
2022/07/02 06:23:56;;;;;;;8.73;6.97;;;20.90;43.60;;;21.46;55.68;101855.75;5061350;28;20452;-73
2022/07/02 06:26:25;;;;;;;7.30;6.60;;;21.20;38.80;;;21.47;55.93;101860.19;5052976;28;20449;-73
2022/07/02 06:28:56;;;;;;;9.67;8.73;;;21.20;37.50;;;21.13;56.51;101868.44;5055369;28;20425;-74
2022/07/02 06:31:25;;;;;;;11.20;8.47;;;21.00;36.00;;;21.21;56.16;101862.50;5032822;28;20454;-73
2022/07/02 06:33:54;;;;;;;8.00;7.17;;;21.00;38.30;;;21.48;55.41;101865.44;5054603;28;20876;-75
2022/07/02 06:36:24;;;;;;;8.60;6.80;;;21.00;36.40;;;21.74;55.07;101866.66;5057715;28;20408;-74
2022/07/02 06:38:54;;;;;;;6.80;6.20;;;21.30;36.50;;;21.89;54.64;101872.41;5041746;28;20545;-72
2022/07/02 06:44:11;;;;;;;9.43;8.53;;;21.30;27.50;;;21.49;54.68;101869.03;5051754;28;20425;-74
2022/07/02 06:46:40;;;;;;;6.10;5.60;;;21.30;29.80;;;21.75;53.57;101862.81;5046959;28;20481;-74
2022/07/02 06:49:09;;;;;;;6.27;5.77;;;21.30;29.00;;;21.67;53.20;101877.03;5046358;28;20442;-74
2022/07/02 06:51:38;;;;;;;12.10;7.37;;;21.40;27.60;;;21.96;54.02;101878.59;5049201;28;20480;-74
2022/07/02 06:54:07;;;;;;;8.70;7.20;;;21.50;30.00;;;21.98;53.67;101879.16;5054079;28;20446;-74
2022/07/02 06:56:36;;;;;;;10.43;6.73;;;21.60;28.60;;;22.37;53.17;101881.88;5064467;28;20443;-74
2022/07/02 06:59:07;;;;;;;8.83;7.67;;;21.80;28.50;;;22.32;52.67;101884.56;5046440;28;20465;-73
2022/07/02 07:01:37;;;;;;;6.37;5.73;;;21.90;26.10;;;22.40;50.92;101887.75;5065883;28;21003;-74
2022/07/02 07:04:27;;;;;;;8.27;6.27;;;21.90;22.20;;;22.19;52.05;101887.72;5044461;28;20427;-73
2022/07/02 07:06:56;;;;;;;6.90;6.20;;;21.90;23.40;;;22.09;53.12;101880.16;5051748;28;20988;-73
2022/07/02 07:09:26;;;;;;;5.90;4.90;;;21.80;24.30;;;22.37;51.38;101881.88;5050303;28;20864;-74
2022/07/02 07:11:56;;;;;;;8.33;6.33;;;22.00;21.70;;;22.65;50.64;101881.69;5049351;28;21021;-73
2022/07/02 07:14:25;;;;;;;6.87;6.10;;;22.20;21.00;;;22.93;50.35;101883.41;5078066;28;20528;-73
2022/07/02 07:16:55;;;;;;;7.03;6.33;;;22.30;21.00;;;23.08;49.88;101886.31;5059406;28;20401;-73
2022/07/02 07:19:24;;;;;;;5.67;5.17;;;22.50;19.40;;;23.14;49.47;101887.19;5077841;28;20426;-74
2022/07/02 07:21:54;;;;;;;6.27;5.67;;;22.70;17.70;;;23.27;48.43;101881.22;5055879;28;20463;-73
2022/07/02 07:24:23;;;;;;;5.63;5.13;;;22.80;16.00;;;23.22;48.65;101890.31;5043911;28;20444;-72
2022/07/02 07:26:52;;;;;;;6.60;5.33;;;22.90;14.50;;;23.26;47.47;101879.56;5059700;28;20482;-72
2022/07/02 07:29:21;;;;;;;4.53;4.00;;;22.90;12.20;;;22.97;47.52;101901.09;5058980;28;20441;-74
2022/07/02 07:31:50;;;;;;;6.90;4.63;;;22.90;11.60;;;23.22;48.24;101889.47;5057475;28;21023;-74
2022/07/02 07:34:21;;;;;;;4.77;4.20;;;22.90;13.30;;;22.84;46.62;101896.84;5062025;28;20439;-73
2022/07/02 07:36:51;;;;;;;6.53;4.70;;;22.80;8.80;;;22.48;48.35;101897.47;5069868;28;20457;-73
2022/07/02 07:39:20;;;;;;;6.93;4.53;;;22.50;10.30;;;22.67;49.39;101897.97;5058693;28;20442;-75
2022/07/02 07:41:49;;;;;;;10.10;4.30;;;22.60;12.00;;;23.00;48.29;101902.50;5063690;28;20489;-74
2022/07/02 07:44:18;;;;;;;3.80;3.27;;;22.60;11.20;;;23.01;46.73;101904.16;5052322;28;20447;-74
2022/07/02 07:46:47;;;;;;;4.60;3.80;;;22.60;8.90;;;23.19;46.37;101903.81;5052592;28;20831;-73
2022/07/02 07:49:16;;;;;;;3.90;3.60;;;22.80;8.90;;;23.19;45.63;101901.06;5059599;28;20439;-74
2022/07/02 07:51:47;;;;;;;3.33;3.03;;;23.00;7.90;;;23.10;44.16;101902.59;5057509;28;20480;-74
2022/07/02 07:54:16;;;;;;;5.50;3.60;;;22.90;4.40;;;22.89;45.38;101902.41;5054795;28;20404;-73
2022/07/02 07:56:45;;;;;;;3.97;3.30;;;22.80;4.80;;;23.12;43.40;101911.47;5052403;28;20434;-74
2022/07/02 07:59:14;;;;;;;3.57;2.53;;;22.90;3.10;;;23.13;43.89;101902.09;5059030;28;20446;-74
2022/07/02 08:01:43;;;;;;;4.93;3.60;;;23.00;3.40;;;23.27;44.30;101908.84;5056444;28;20537;-74
2022/07/02 08:04:12;;;;;;;3.93;2.80;;;23.00;4.20;;;23.50;43.21;101903.00;5044937;28;20471;-76
2022/07/02 08:06:41;;;;;;;3.90;3.10;;;23.10;2.70;;;23.46;42.69;101907.41;5063330;28;20990;-74
2022/07/02 08:09:12;;;;;;;2.90;2.07;;;23.30;1.00;;;23.57;42.50;101911.91;5054302;28;20888;-73
2022/07/02 08:11:41;;;;;;;3.73;2.73;;;23.30;1.00;;;23.67;41.74;101909.19;5058005;28;20513;-75
2022/07/02 08:14:10;;;;;;;3.30;2.40;;;23.30;1.00;;;23.70;41.21;101905.94;5053772;28;20438;-73
2022/07/02 08:16:39;;;;;;;2.73;2.20;;;23.40;1.00;;;23.79;41.60;101901.56;5051127;28;20435;-75
2022/07/02 08:19:08;;;;;;;4.50;1.90;;;23.50;1.00;;;24.05;40.69;101912.78;5037875;28;20446;-72
2022/07/02 08:21:37;;;;;;;3.37;2.30;;;23.70;1.00;;;24.34;40.18;101922.38;5068558;28;20561;-75
2022/07/02 08:24:07;;;;;;;3.70;1.70;;;23.90;1.00;;;24.66;39.69;101925.84;5053591;28;20810;-73
2022/07/02 08:26:37;;;;;;;2.33;1.70;;;24.20;1.00;;;24.46;39.57;101920.22;5057017;28;20447;-73
2022/07/02 08:29:06;;;;;;;2.33;1.73;;;24.30;1.00;;;24.50;38.97;101918.56;5059500;28;20485;-73
2022/07/02 08:31:35;;;;;;;5.33;2.50;;;24.30;1.00;;;24.97;38.51;101928.72;5050940;28;20969;-72
2022/07/02 08:34:04;;;;;;;2.90;2.20;;;24.60;1.00;;;24.92;38.37;101921.25;5055817;28;20939;-74
2022/07/02 08:36:34;;;;;;;1.93;1.53;;;24.50;1.00;;;25.04;37.20;101929.28;5056816;28;20944;-73
2022/07/02 08:39:04;;;;;;;4.20;3.30;;;24.70;1.00;;;24.40;39.26;101935.13;5044402;28;20790;-74
2022/07/02 08:41:34;;;;;;;2.77;2.27;;;24.30;1.00;;;23.96;40.29;101934.59;5041090;28;20443;-73
2022/07/02 08:44:08;;;;;;;3.73;2.20;;;23.90;1.00;;;24.38;40.19;101929.03;5051878;28;20941;-73
2022/07/02 08:46:41;;;;;;;5.07;2.27;;;24.10;1.00;;;24.94;39.86;101929.25;5050598;28;20438;-74
2022/07/02 08:49:12;;;;;;;2.03;1.83;;;24.40;1.00;;;25.45;38.95;101928.25;5054996;28;20471;-74
2022/07/02 08:51:42;;;;;;;4.40;2.80;;;24.80;1.00;;;25.78;38.04;101934.34;5059122;28;20465;-75
2022/07/02 08:54:13;;;;;;;2.53;2.33;;;25.20;1.00;;;25.55;37.51;101923.84;5064039;28;20860;-73
2022/07/02 08:56:43;;;;;;;6.20;2.50;;;25.10;1.00;;;25.02;38.30;101925.97;5044360;28;20443;-73
2022/07/02 08:59:14;;;;;;;3.50;3.00;;;24.80;1.00;;;24.17;38.74;101921.72;5050803;28;20516;-73
2022/07/02 09:01:43;;;;;;;2.73;2.00;;;24.20;1.00;;;23.95;38.16;101924.63;5054445;28;20459;-73
2022/07/02 09:04:15;;;;;;;3.27;2.07;;;23.90;1.00;;;24.37;37.69;101919.06;5032248;28;20458;-75
2022/07/02 09:06:47;;;;;;;2.57;2.37;;;24.00;1.00;;;23.85;37.92;101920.94;5054561;28;20439;-72
2022/07/02 09:09:17;;;;;;;5.10;2.40;;;23.90;1.00;;;24.24;38.13;101911.28;5055068;28;20454;-73
2022/07/02 09:11:48;;;;;;;3.10;2.03;;;24.00;1.00;;;24.39;38.14;101911.34;5055166;28;20795;-74
2022/07/02 09:14:20;;;;;;;5.87;2.60;;;24.10;1.00;;;24.71;37.55;101913.13;5065819;28;20473;-73
2022/07/02 09:16:50;;;;;;;2.87;1.70;;;24.40;1.00;;;24.82;37.82;101914.81;5043010;28;20467;-73
2022/07/02 09:19:20;;;;;;;1.90;1.70;;;24.50;1.00;;;24.88;36.51;101902.69;5048900;28;20509;-73
2022/07/02 09:21:51;;;;;;;2.60;2.30;;;24.50;1.00;;;24.83;36.83;101913.72;5058063;28;20972;-73
2022/07/02 09:24:31;;;;;;;2.37;1.70;;;24.50;1.00;;;25.19;36.64;101909.94;5045879;28;20778;-73
2022/07/02 09:27:02;;;;;;;4.87;2.23;;;24.70;1.00;;;25.07;35.64;101901.06;5050231;28;20417;-73
2022/07/02 09:29:44;;;;;;;2.33;1.83;;;24.70;1.00;;;24.13;36.58;101901.22;5061345;28;20453;-73
2022/07/02 09:32:15;;;;;;;5.23;2.37;;;24.30;1.00;;;23.97;37.94;101891.16;5053415;28;20462;-75
2022/07/02 09:34:47;;;;;;;2.67;1.90;;;24.00;1.00;;;24.32;37.65;101891.38;5047141;28;20454;-73
2022/07/02 09:37:17;;;;;;;4.93;2.37;;;24.10;1.00;;;24.51;36.23;101892.56;5064983;28;20454;-73
2022/07/02 09:39:49;;;;;;;2.30;2.00;;;24.20;1.00;;;24.63;37.72;101895.94;5058006;28;20442;-74
2022/07/02 09:42:29;;;;;;;5.10;1.80;;;24.30;1.00;;;25.07;36.23;101890.00;5049113;28;21119;-72
2022/07/02 09:45:02;;;;;;;2.60;1.97;;;24.50;1.00;;;25.56;35.23;101895.03;5056838;28;20446;-72
2022/07/02 09:47:33;;;;;;;6.07;2.10;;;25.00;1.00;;;25.93;34.67;101892.75;5050660;28;20459;-74
2022/07/02 09:50:08;;;;;;;2.67;2.23;;;25.30;1.00;;;25.75;35.17;101890.56;5050977;28;20812;-73
2022/07/02 09:52:48;;;;;;;2.63;2.00;;;25.30;1.00;;;25.51;35.04;101885.53;5045954;28;20462;-73
2022/07/02 09:55:25;;;;;;;2.30;2.10;;;25.30;1.00;;;25.53;34.48;101883.34;5053696;28;20412;-73
2022/07/02 09:57:56;;;;;;;2.13;1.80;;;25.40;1.00;;;24.89;35.09;101882.19;5051436;28;20493;-72
2022/07/02 10:00:29;;;;;;;2.80;1.70;;;25.00;1.00;;;24.91;34.32;101880.81;5061195;28;20440;-74
2022/07/02 10:03:01;;;;;;;2.63;1.80;;;24.80;1.00;;;24.76;35.01;101879.91;5044437;28;20470;-73
2022/07/02 10:05:33;;;;;;;5.20;2.17;;;24.70;1.00;;;24.12;35.89;101888.47;5038135;28;20432;-74
2022/07/02 10:08:05;;;;;;;2.73;2.40;;;24.20;1.00;;;24.03;36.47;101884.56;5042053;28;20481;-74
2022/07/02 10:10:38;;;;;;;2.50;1.60;;;24.00;1.00;;;24.26;36.56;101889.69;5056410;28;20480;-73
2022/07/02 10:13:09;;;;;;;3.53;2.63;;;24.10;1.00;;;24.41;36.77;101891.69;5059476;28;20494;-74
2022/07/02 10:15:55;;;;;;;6.00;2.87;;;24.10;1.00;;;24.51;36.86;101889.81;5047762;28;20435;-72
2022/07/02 10:18:26;;;;;;;3.47;2.00;;;24.20;1.00;;;24.85;36.19;101886.56;5056049;28;20977;-75
2022/07/02 10:20:56;;;;;;;4.87;2.40;;;24.50;1.00;;;25.09;35.36;101885.00;5051529;28;20461;-72
2022/07/02 10:23:26;;;;;;;2.90;1.93;;;24.70;1.00;;;25.11;34.73;101891.09;5048075;28;20567;-73
2022/07/02 10:25:56;;;;;;;2.73;1.57;;;24.90;1.00;;;25.01;35.14;101888.31;5062869;28;20465;-73
2022/07/02 10:28:25;;;;;;;2.57;1.53;;;24.90;1.00;;;24.99;34.65;101882.19;5056426;28;20467;-72
2022/07/02 10:30:59;;;;;;;3.13;1.57;;;24.80;1.00;;;25.30;34.54;101889.44;5063894;28;20446;-72
2022/07/02 10:33:37;;;;;;;3.03;1.60;;;25.00;1.00;;;25.47;33.99;101884.44;5058533;28;20491;-73